createdAt,value
2018-12-07T00:00:24.891Z,12.33
2018-12-07T00:02:58.678Z,10.28
2018-12-07T00:05:33.229Z,13.40
2018-12-07T00:08:07.072Z,12.95
2018-12-07T00:10:40.893Z,10.57
2018-12-07T00:13:15.509Z,12.73
2018-12-07T00:15:49.325Z,14.43
2018-12-07T00:18:23.266Z,13.60
2018-12-07T00:20:57.774Z,13.10
2018-12-07T00:23:31.526Z,9.23
2018-12-07T00:26:06.065Z,11.83
2018-12-07T00:28:39.866Z,11.70
2018-12-07T00:31:13.623Z,11.00
2018-12-07T00:33:47.366Z,10.70
2018-12-07T00:36:21.226Z,10.82
2018-12-07T00:38:55.026Z,11.00
2018-12-07T00:41:28.866Z,10.38
2018-12-07T00:44:02.645Z,9.90
2018-12-07T00:46:36.439Z,8.13
2018-12-07T00:49:10.256Z,10.60
2018-12-07T00:51:44.008Z,7.60
2018-12-07T00:54:17.826Z,9.90
2018-12-07T00:56:52.318Z,7.33
2018-12-07T00:59:26.018Z,8.15
2018-12-07T01:01:59.840Z,8.08
2018-12-07T01:04:34.438Z,10.65
2018-12-07T01:07:08.987Z,11.80
2018-12-07T01:09:43.532Z,8.10
2018-12-07T01:12:17.337Z,10.35
2018-12-07T01:14:51.098Z,8.83
2018-12-07T01:17:24.973Z,8.30
2018-12-07T01:19:58.787Z,8.05
2018-12-07T01:22:32.526Z,7.05
2018-12-07T01:25:07.086Z,9.27
2018-12-07T01:27:41.197Z,7.75
2018-12-07T01:30:15.413Z,9.53
2018-12-07T01:32:49.247Z,8.93
2018-12-07T01:35:23.079Z,8.97
2018-12-07T01:37:57.670Z,7.35
2018-12-07T01:40:31.546Z,7.95
2018-12-07T01:43:06.117Z,10.08
2018-12-07T01:45:39.913Z,10.23
2018-12-07T01:48:14.029Z,9.00
2018-12-07T01:50:47.861Z,7.17
2018-12-07T01:53:21.683Z,6.63
2018-12-07T01:55:55.465Z,6.95
2018-12-07T01:58:29.290Z,7.03
2018-12-07T02:01:03.108Z,6.62
2018-12-07T02:03:38.424Z,6.27
2018-12-07T02:06:12.192Z,4.67
2018-12-07T02:08:46.113Z,6.80
2018-12-07T02:11:19.864Z,6.50
2018-12-07T02:13:53.695Z,7.22
2018-12-07T02:16:28.213Z,3.83
2018-12-07T02:19:02.785Z,4.10
2018-12-07T02:21:36.540Z,5.67
2018-12-07T02:24:11.130Z,6.05
2018-12-07T02:26:44.977Z,6.87
2018-12-07T02:29:19.558Z,6.60
2018-12-07T02:31:53.365Z,6.20
2018-12-07T02:34:27.203Z,4.60
2018-12-07T02:37:01.355Z,6.60
2018-12-07T02:39:35.237Z,5.53
2018-12-07T02:42:09.813Z,7.90
2018-12-07T02:44:43.657Z,6.58
2018-12-07T02:47:17.411Z,7.15
2018-12-07T02:49:51.229Z,6.37
2018-12-07T02:52:25.233Z,5.73
2018-12-07T02:54:59.028Z,4.15
2018-12-07T02:57:32.800Z,4.20
2018-12-07T03:00:09.175Z,4.55
2018-12-07T03:02:43.719Z,4.87
2018-12-07T03:05:17.496Z,4.10
2018-12-07T03:07:51.297Z,3.27
2018-12-07T03:10:25.529Z,4.22
2018-12-07T03:13:00.066Z,3.60
2018-12-07T03:15:33.873Z,3.85
2018-12-07T03:20:54.232Z,4.23
2018-12-07T03:23:28.003Z,3.47
2018-12-07T03:26:01.791Z,4.73
2018-12-07T03:28:36.356Z,6.95
2018-12-07T03:31:10.226Z,4.37
2018-12-07T03:33:44.120Z,4.67
2018-12-07T03:36:18.247Z,4.50
2018-12-07T03:38:52.062Z,5.17
2018-12-07T03:41:25.922Z,5.85
2018-12-07T03:43:59.726Z,5.00
2018-12-07T03:46:33.500Z,4.15
2018-12-07T03:49:07.409Z,4.37
2018-12-07T03:51:41.213Z,5.12
2018-12-07T03:54:15.017Z,5.20
2018-12-07T03:56:48.788Z,4.00
2018-12-07T03:59:23.320Z,4.90
2018-12-07T04:01:57.118Z,3.30
2018-12-07T04:04:32.021Z,4.28
2018-12-07T04:07:05.817Z,4.80
2018-12-07T04:12:21.804Z,4.10
2018-12-07T04:14:55.563Z,4.90
2018-12-07T04:17:30.116Z,4.10
2018-12-07T04:20:03.930Z,3.90
2018-12-07T04:22:37.699Z,3.97
2018-12-07T04:27:51.816Z,3.93
2018-12-07T04:30:30.043Z,5.12
2018-12-07T04:33:04.146Z,4.95
2018-12-07T04:35:37.957Z,4.33
2018-12-07T04:38:11.742Z,4.20
2018-12-07T04:40:45.588Z,4.65
2018-12-07T04:43:19.388Z,4.47
2018-12-07T04:45:53.236Z,4.47
2018-12-07T04:48:26.987Z,3.47
2018-12-07T04:51:00.795Z,5.28
2018-12-07T04:53:34.845Z,5.90
2018-12-07T04:56:09.677Z,5.77
2018-12-07T04:58:44.269Z,8.10
2018-12-07T05:01:18.089Z,7.03
2018-12-07T05:03:52.150Z,4.80
2018-12-07T05:06:25.955Z,5.87
2018-12-07T05:09:00.078Z,8.38
2018-12-07T05:11:33.878Z,7.72
2018-12-07T05:14:07.670Z,9.70
2018-12-07T05:16:41.479Z,5.37
2018-12-07T05:19:15.589Z,5.72
2018-12-07T05:21:50.601Z,7.20
2018-12-07T05:24:24.230Z,9.80
2018-12-07T05:26:58.009Z,9.27
2018-12-07T05:29:32.590Z,7.10
2018-12-07T05:32:06.434Z,11.10
2018-12-07T05:34:40.229Z,10.88
2018-12-07T05:37:14.047Z,11.03
2018-12-07T05:39:48.562Z,12.17
2018-12-07T05:42:22.444Z,10.53
2018-12-07T05:44:56.178Z,10.35
2018-12-07T05:47:30.077Z,10.40
2018-12-07T05:50:03.863Z,10.53
2018-12-07T05:52:37.658Z,8.27
2018-12-07T05:55:11.374Z,10.50
2018-12-07T05:57:45.239Z,11.07
2018-12-07T06:00:19.839Z,9.03
2018-12-07T06:02:53.700Z,9.53
2018-12-07T06:05:27.465Z,9.37
2018-12-07T06:08:02.275Z,10.87
2018-12-07T06:10:36.054Z,9.30
2018-12-07T06:13:09.869Z,8.20
2018-12-07T06:15:43.678Z,8.77
2018-12-07T06:18:17.876Z,6.40
2018-12-07T06:20:51.678Z,6.83
2018-12-07T06:23:26.315Z,8.90
2018-12-07T06:26:00.155Z,8.50
2018-12-07T06:28:34.729Z,7.33
2018-12-07T06:31:08.524Z,6.90
2018-12-07T06:33:42.466Z,7.53
2018-12-07T06:36:16.486Z,5.57
2018-12-07T06:38:50.547Z,4.33
2018-12-07T06:41:24.334Z,5.55
2018-12-07T06:43:58.881Z,4.63
2018-12-07T06:46:32.628Z,2.90
2018-12-07T06:49:16.177Z,4.23
2018-12-07T06:51:49.952Z,3.77
2018-12-07T06:54:23.700Z,4.10
2018-12-07T06:56:57.517Z,5.33
2018-12-07T06:59:32.085Z,4.03
2018-12-07T07:02:05.997Z,3.97
2018-12-07T07:04:39.849Z,3.05
2018-12-07T07:07:14.496Z,4.53
2018-12-07T07:09:49.011Z,5.47
2018-12-07T07:12:23.929Z,5.20
2018-12-07T07:14:58.494Z,4.15
2018-12-07T07:17:32.461Z,6.53
2018-12-07T07:20:07.497Z,5.72
2018-12-07T07:25:23.813Z,5.33
2018-12-07T07:27:57.605Z,6.30
2018-12-07T07:30:31.421Z,6.83
2018-12-07T07:33:05.239Z,6.57
2018-12-07T07:35:39.754Z,5.43
2018-12-07T07:38:13.585Z,7.83
2018-12-07T07:40:48.410Z,6.67
2018-12-07T07:43:22.916Z,5.67
2018-12-07T07:46:03.152Z,8.10
2018-12-07T07:48:36.923Z,8.00
2018-12-07T07:51:10.989Z,8.13
2018-12-07T07:53:45.500Z,8.05
2018-12-07T07:56:19.304Z,8.90
2018-12-07T07:58:53.126Z,8.33
2018-12-07T08:01:27.664Z,12.33
2018-12-07T08:04:02.426Z,7.23
2018-12-07T08:06:36.194Z,10.82
2018-12-07T08:09:10.926Z,6.93
2018-12-07T08:11:44.784Z,10.93
2018-12-07T08:14:18.586Z,7.73
2018-12-07T08:36:34.277Z,4.08
2018-12-07T08:47:05.527Z,5.57
2018-12-07T08:52:34.512Z,7.80
2018-12-07T08:55:08.334Z,7.10
2018-12-07T08:57:42.097Z,5.53
2018-12-07T09:00:15.884Z,6.45
2018-12-07T09:02:50.472Z,7.97
2018-12-07T09:05:24.279Z,5.63
2018-12-07T09:07:58.114Z,5.50
2018-12-07T09:10:32.681Z,5.85
2018-12-07T09:13:06.469Z,4.00
2018-12-07T09:15:41.394Z,4.80
2018-12-07T09:18:15.849Z,5.50
2018-12-07T09:20:53.922Z,4.95
2018-12-07T09:23:24.136Z,6.22
2018-12-07T09:28:41.597Z,6.10
2018-12-07T09:31:15.446Z,6.20
2018-12-07T09:33:49.222Z,7.60
2018-12-07T09:36:23.017Z,4.95
2018-12-07T09:38:56.842Z,7.13
2018-12-07T09:41:30.645Z,6.20
2018-12-07T09:44:05.235Z,5.87
2018-12-07T09:46:40.058Z,8.70
2018-12-07T09:49:14.615Z,7.20
2018-12-07T09:54:29.513Z,4.83
2018-12-07T09:57:03.253Z,6.67
2018-12-07T09:59:37.039Z,6.60
2018-12-07T10:04:52.191Z,5.45
2018-12-07T10:07:26.297Z,6.28
2018-12-07T10:10:00.826Z,4.75
2018-12-07T10:12:35.344Z,7.70
2018-12-07T10:15:10.237Z,6.15
2018-12-07T10:17:44.054Z,8.40
2018-12-07T10:20:17.866Z,6.70
2018-12-07T10:22:51.634Z,6.43
2018-12-07T10:25:25.424Z,6.50
2018-12-07T10:27:59.833Z,5.45
2018-12-07T10:30:33.581Z,8.83
2018-12-07T10:33:08.095Z,5.35
2018-12-07T10:35:41.857Z,5.85
2018-12-07T10:38:16.400Z,7.47
2018-12-07T10:40:50.177Z,4.70
2018-12-07T10:43:24.968Z,8.23
2018-12-07T10:48:38.427Z,8.00
2018-12-07T10:51:12.177Z,7.75
2018-12-07T10:56:28.214Z,6.45
2018-12-07T10:59:02.006Z,6.83
2018-12-07T11:01:54.426Z,4.45
2018-12-07T11:07:46.968Z,4.85
2018-12-07T11:10:39.316Z,6.27
2018-12-07T11:13:32.456Z,4.28
2018-12-07T11:19:27.337Z,4.30
2018-12-07T11:22:20.078Z,3.93
2018-12-07T11:25:11.654Z,3.80
2018-12-07T11:28:04.018Z,5.57
2018-12-07T11:33:50.725Z,5.35
2018-12-07T11:36:25.247Z,4.80
2018-12-07T11:41:38.669Z,3.65
2018-12-07T11:44:12.421Z,3.70
2018-12-07T11:46:46.209Z,3.98
2018-12-07T11:52:01.866Z,1.80
2018-12-07T11:54:36.384Z,3.27
2018-12-07T11:57:10.178Z,1.98
2018-12-07T11:59:44.681Z,2.63
2018-12-07T12:02:26.166Z,2.35
2018-12-07T12:04:53.074Z,2.12
2018-12-07T12:07:27.661Z,2.15
2018-12-07T12:10:01.491Z,2.10
2018-12-07T12:12:35.344Z,2.22
2018-12-07T12:17:52.256Z,1.90
2018-12-07T12:20:26.045Z,3.47
2018-12-07T12:25:39.706Z,3.23
2018-12-07T12:28:13.441Z,1.20
2018-12-07T12:30:47.482Z,1.30
2018-12-07T12:36:00.787Z,1.77
2018-12-07T12:38:34.582Z,1.67
2018-12-07T12:41:08.412Z,1.50
2018-12-07T12:46:24.455Z,1.35
2018-12-07T12:48:58.237Z,1.60
2018-12-07T12:51:31.983Z,1.47
2018-12-07T12:54:05.791Z,3.72
2018-12-07T12:56:39.643Z,1.17
2018-12-07T12:59:14.956Z,4.13
2018-12-07T13:01:48.794Z,2.87
2018-12-07T13:04:22.625Z,1.45
2018-12-07T13:06:56.788Z,1.87
2018-12-07T13:09:30.625Z,1.17
2018-12-07T13:12:05.140Z,1.55
2018-12-07T13:14:38.859Z,1.73
2018-12-07T13:17:12.922Z,2.87
2018-12-07T13:19:46.733Z,0.80
2018-12-07T13:22:20.965Z,1.02
2018-12-07T13:24:54.730Z,1.17
2018-12-07T13:27:28.517Z,0.93
2018-12-07T13:30:03.018Z,1.50
2018-12-07T13:32:38.301Z,2.27
2018-12-07T13:35:12.125Z,0.70
2018-12-07T13:37:45.954Z,2.08
2018-12-07T13:40:19.804Z,0.72
2018-12-07T13:42:53.628Z,1.30
2018-12-07T13:45:28.226Z,0.95
2018-12-07T13:48:03.092Z,0.70
2018-12-07T13:50:43.891Z,0.97
2018-12-07T13:53:17.755Z,1.37
2018-12-07T13:55:52.248Z,0.97
2018-12-07T13:58:26.419Z,1.10
2018-12-07T14:01:00.212Z,1.53
2018-12-07T14:03:34.083Z,0.90
2018-12-07T14:06:08.108Z,0.70
2018-12-07T14:08:41.952Z,0.97
2018-12-07T14:11:15.647Z,1.82
2018-12-07T14:13:50.439Z,0.70
2018-12-07T14:16:24.273Z,1.07
2018-12-07T14:18:57.987Z,0.80
2018-12-07T14:21:31.934Z,0.90
2018-12-07T14:24:06.909Z,0.63
2018-12-07T14:26:40.559Z,0.67
2018-12-07T14:29:15.133Z,1.10
2018-12-07T14:34:31.106Z,0.82
2018-12-07T14:39:47.873Z,0.63
2018-12-07T14:42:23.941Z,0.50
2018-12-07T14:47:39.745Z,1.15
2018-12-07T14:50:13.707Z,0.40
2018-12-07T14:52:47.350Z,1.50
2018-12-07T14:58:02.607Z,0.50
2018-12-07T15:00:36.375Z,0.50
2018-12-07T15:03:10.085Z,0.50
2018-12-07T15:05:43.956Z,0.37
2018-12-07T15:08:18.605Z,0.40
2018-12-07T15:16:12.077Z,0.50
2018-12-07T15:18:45.907Z,0.50
2018-12-07T15:21:19.581Z,0.65
2018-12-07T15:26:39.551Z,0.40
2018-12-07T15:29:13.345Z,0.50
2018-12-07T15:31:47.179Z,0.47
2018-12-07T15:37:04.124Z,0.75
2018-12-07T15:39:38.695Z,1.35
2018-12-07T15:42:12.875Z,0.60
2018-12-07T15:50:09.673Z,1.45
2018-12-07T15:52:43.644Z,3.25
2018-12-07T15:55:17.227Z,2.03
2018-12-07T15:57:51.008Z,0.98
2018-12-07T16:03:08.445Z,0.67
2018-12-07T16:05:42.478Z,2.07
2018-12-07T16:08:16.103Z,2.95
2018-12-07T16:10:50.132Z,0.87
2018-12-07T16:13:24.292Z,0.90
2018-12-07T16:15:58.908Z,1.40
2018-12-07T16:18:32.733Z,3.27
2018-12-07T16:21:06.510Z,1.47
2018-12-07T16:23:40.421Z,1.13
2018-12-07T16:26:14.209Z,1.40
2018-12-07T16:28:47.908Z,1.70
2018-12-07T16:34:01.826Z,1.00
2018-12-07T16:36:35.725Z,2.50
2018-12-07T16:39:10.374Z,1.40
2018-12-07T16:41:44.063Z,3.30
2018-12-07T16:46:57.403Z,2.20
2018-12-07T16:49:31.027Z,3.35
2018-12-07T16:52:05.197Z,2.43
2018-12-07T16:57:19.286Z,2.63
2018-12-07T16:59:53.090Z,1.90
2018-12-07T17:02:27.559Z,2.07
2018-12-07T17:05:02.477Z,1.97
2018-12-07T17:07:36.484Z,3.20
2018-12-07T17:10:10.737Z,3.33
2018-12-07T17:12:45.257Z,1.60
2018-12-07T17:15:18.892Z,2.00
2018-12-07T17:17:52.736Z,1.97
2018-12-07T17:20:26.715Z,2.62
2018-12-07T17:23:01.244Z,2.20
2018-12-07T17:25:35.060Z,2.87
2018-12-07T17:28:09.039Z,3.83
2018-12-07T17:36:05.811Z,2.65
2018-12-07T17:38:39.684Z,3.50
2018-12-07T17:41:13.523Z,2.40
2018-12-07T17:43:47.231Z,2.40
2018-12-07T17:46:21.109Z,2.10
2018-12-07T17:48:55.239Z,2.17
2018-12-07T17:54:10.489Z,2.10
2018-12-07T17:56:44.470Z,2.23
2018-12-07T17:59:18.853Z,2.63
2018-12-07T18:01:52.523Z,1.90
2018-12-07T18:04:26.337Z,1.90
2018-12-07T18:07:01.201Z,3.20
2018-12-07T18:09:34.906Z,3.23
2018-12-07T18:12:08.938Z,2.10
2018-12-07T18:14:42.822Z,1.62
2018-12-07T18:17:16.774Z,2.13
2018-12-07T18:19:50.552Z,4.00
2018-12-07T18:25:06.935Z,2.15
2018-12-07T18:33:10.739Z,1.05
2018-12-07T18:35:44.651Z,1.20
2018-12-07T18:38:18.242Z,1.23
2018-12-07T18:40:52.847Z,2.13
2018-12-07T18:43:26.740Z,1.30
2018-12-07T18:46:00.723Z,1.70
2018-12-07T18:48:35.543Z,2.62
2018-12-07T18:51:09.146Z,4.28
2018-12-07T18:53:43.002Z,2.50
2018-12-07T18:56:16.966Z,2.17
2018-12-07T18:58:50.842Z,1.57
2018-12-07T19:01:24.628Z,1.62
2018-12-07T19:03:58.671Z,3.90
2018-12-07T19:06:33.096Z,2.30
2018-12-07T19:09:11.048Z,1.10
2018-12-07T19:11:44.882Z,1.50
2018-12-07T19:16:58.227Z,1.13
2018-12-07T19:19:31.790Z,2.63
2018-12-07T19:22:05.847Z,2.92
2018-12-07T19:24:39.598Z,1.57
2018-12-07T19:29:53.263Z,1.83
2018-12-07T19:32:28.711Z,3.30
2018-12-07T19:37:44.086Z,7.33
2018-12-07T19:40:17.864Z,3.73
2018-12-07T19:42:51.634Z,3.77
2018-12-07T19:45:25.799Z,6.53
2018-12-07T19:47:59.721Z,3.70
2018-12-07T19:50:33.543Z,5.60
2018-12-07T19:53:08.474Z,4.07
2018-12-07T19:55:42.243Z,5.50
2018-12-07T19:58:15.917Z,2.03
2018-12-07T20:03:31.406Z,4.40
2018-12-07T20:06:06.923Z,3.90
2018-12-07T20:08:40.433Z,5.47
2018-12-07T20:11:14.993Z,7.40
2018-12-07T20:13:48.825Z,8.47
2018-12-07T20:16:22.725Z,4.50
2018-12-07T20:18:56.821Z,5.17
2018-12-07T20:21:30.656Z,7.07
2018-12-07T20:24:05.706Z,6.13
2018-12-07T20:26:40.335Z,5.07
2018-12-07T20:31:55.501Z,5.10
2018-12-07T20:34:29.228Z,6.47
2018-12-07T20:37:03.071Z,8.23
2018-12-07T20:39:36.869Z,7.97
2018-12-07T20:42:10.720Z,8.50
2018-12-07T20:44:44.512Z,9.23
2018-12-07T20:47:24.540Z,8.90
2018-12-07T20:49:52.309Z,9.83
2018-12-07T20:52:26.001Z,10.93
2018-12-07T20:55:00.058Z,12.00
2018-12-07T20:57:33.753Z,12.17
2018-12-07T21:00:09.959Z,14.97
2018-12-07T21:02:43.970Z,11.23
2018-12-07T21:09:34.153Z,11.90
2018-12-07T21:13:36.471Z,10.00
2018-12-07T21:19:22.076Z,6.97
2018-12-07T21:21:55.714Z,7.13
2018-12-07T21:24:38.220Z,13.67
2018-12-07T21:27:12.235Z,6.17
2018-12-07T21:32:55.517Z,8.30
2018-12-07T21:35:29.332Z,4.17
2018-12-07T21:38:04.039Z,5.73
2018-12-07T21:40:37.656Z,6.83
2018-12-07T21:43:12.456Z,3.70
2018-12-07T21:45:45.954Z,8.50
2018-12-07T21:48:30.427Z,8.17
2018-12-07T21:54:32.596Z,15.63
2018-12-07T21:57:06.209Z,13.13
2018-12-07T21:59:41.034Z,9.27
2018-12-07T22:04:55.264Z,18.97
2018-12-07T22:07:30.360Z,13.83
2018-12-07T22:10:04.803Z,14.97
2018-12-07T22:12:39.599Z,14.40
2018-12-07T22:15:13.549Z,16.83
2018-12-07T22:20:27.198Z,15.43
2018-12-07T22:23:01.158Z,19.07
2018-12-07T22:25:34.776Z,16.17
2018-12-07T22:28:09.600Z,17.23
2018-12-07T22:30:43.559Z,14.63
2018-12-07T22:33:17.247Z,10.97
2018-12-07T22:35:50.992Z,10.33
2018-12-07T22:38:24.869Z,9.97
2018-12-07T22:40:58.661Z,10.50
2018-12-07T22:43:32.847Z,8.90
2018-12-07T22:46:06.571Z,7.07
2018-12-07T22:48:40.507Z,9.87
2018-12-07T22:51:14.849Z,6.17
2018-12-07T22:53:49.681Z,9.80
2018-12-07T22:56:24.362Z,7.53
2018-12-07T22:58:59.043Z,7.17
2018-12-07T23:01:32.841Z,8.80
2018-12-07T23:04:06.614Z,8.73
2018-12-07T23:06:40.447Z,8.33
2018-12-07T23:09:15.033Z,9.27
2018-12-07T23:11:48.870Z,8.53
2018-12-07T23:14:22.650Z,9.70
2018-12-07T23:16:56.455Z,10.60
2018-12-07T23:19:30.246Z,11.57
2018-12-07T23:22:04.037Z,9.87
2018-12-07T23:24:38.117Z,12.47
2018-12-07T23:27:12.605Z,12.37
2018-12-07T23:29:47.210Z,13.60
2018-12-07T23:32:21.298Z,14.00
2018-12-07T23:34:55.089Z,19.43
2018-12-07T23:37:30.058Z,13.23
2018-12-07T23:40:03.901Z,13.53
2018-12-07T23:42:37.760Z,16.77
2018-12-07T23:45:11.529Z,16.67
2018-12-07T23:47:45.312Z,16.00
2018-12-07T23:50:19.104Z,18.63
2018-12-07T23:52:52.884Z,22.83
2018-12-07T23:55:26.901Z,15.27
2018-12-07T23:58:01.405Z,23.40
